RYR3TJ LICA-LIMC
Flight info
| Callsign | RYR3TJ |
|---|---|
| Flight time | 2h 18m |
| Altitude | 38000 |
| Route | ARBUM DCT EVINO DCT PNZ DCT RIFFI DCT ELVIN DCT LUNAK DCT RAVAL DCT MEDAL DCT GILIO DCT UPDIN DCT SPEZI DCT IDONA DCT MEBUR |
| Aircraft | B738/M-SDE2E3FGHIRWXY/LB1 |
Departure
| Time | 2026-05-05 19:24 |
|---|---|
| Airport | Lamezia Terme Sant'Eufemia International Airport (LICA) |
Arrival
| Time | 2026-05-05 21:42 |
|---|---|
| Airport | Milan Malpensa International Airport (LIMC) |
| Time | Latitude | Longitude | Altitude | Speed | Heading |
|---|---|---|---|---|---|
| 2026-05-05 18:57 | 38.90870 | 16.24532 | 30 ft | 0 kts | 56° |
| 2026-05-05 19:16 | 38.90870 | 16.24533 | 31 ft | 0 kts | 62° |
| 2026-05-05 19:16 | 38.90869 | 16.24545 | 31 ft | 4 kts | 105° |
| 2026-05-05 19:17 | 38.90842 | 16.24539 | 31 ft | 6 kts | 215° |
| 2026-05-05 19:17 | 38.90799 | 16.24566 | 31 ft | 11 kts | 110° |
| 2026-05-05 19:17 | 38.90788 | 16.24653 | 31 ft | 10 kts | 98° |
| 2026-05-05 19:17 | 38.90778 | 16.24736 | 31 ft | 9 kts | 98° |
| 2026-05-05 19:18 | 38.90769 | 16.24817 | 31 ft | 9 kts | 98° |
| 2026-05-05 19:18 | 38.90760 | 16.24897 | 31 ft | 9 kts | 98° |
| 2026-05-05 19:18 | 38.90749 | 16.24987 | 31 ft | 11 kts | 98° |
| 2026-05-05 19:18 | 38.90738 | 16.25089 | 31 ft | 12 kts | 98° |
| 2026-05-05 19:19 | 38.90726 | 16.25195 | 31 ft | 12 kts | 98° |
| 2026-05-05 19:19 | 38.90688 | 16.25286 | 31 ft | 12 kts | 137° |
| 2026-05-05 19:19 | 38.90629 | 16.25352 | 32 ft | 11 kts | 134° |
| 2026-05-05 19:19 | 38.90587 | 16.25434 | 34 ft | 11 kts | 125° |
| 2026-05-05 19:20 | 38.90534 | 16.25499 | 34 ft | 11 kts | 142° |
| 2026-05-05 19:20 | 38.90510 | 16.25522 | 33 ft | 0 kts | 143° |
| 2026-05-05 19:22 | 38.90505 | 16.25526 | 33 ft | 3 kts | 143° |
| 2026-05-05 19:22 | 38.90463 | 16.25567 | 31 ft | 13 kts | 143° |
| 2026-05-05 19:22 | 38.90386 | 16.25584 | 31 ft | 9 kts | 233° |
| 2026-05-05 19:23 | 38.90390 | 16.25508 | 31 ft | 11 kts | 278° |
| 2026-05-05 19:23 | 38.90429 | 16.25176 | 33 ft | 74 kts | 279° |
| 2026-05-05 19:23 | 38.90542 | 16.24220 | 26 ft | 141 kts | 278° |
| 2026-05-05 19:23 | 38.90720 | 16.22793 | 308 ft | 173 kts | 281° |
| 2026-05-05 19:24 | 38.90931 | 16.21275 | 1164 ft | 172 kts | 282° |
| 2026-05-05 19:24 | 38.91131 | 16.19762 | 1983 ft | 177 kts | 279° |
| 2026-05-05 19:24 | 38.91310 | 16.18104 | 2459 ft | 203 kts | 277° |
| 2026-05-05 19:24 | 38.91497 | 16.16215 | 2771 ft | 227 kts | 277° |
| 2026-05-05 19:25 | 38.91710 | 16.14157 | 3239 ft | 241 kts | 278° |
| 2026-05-05 19:25 | 38.92159 | 16.11995 | 3670 ft | 260 kts | 301° |
| 2026-05-05 19:25 | 38.93280 | 16.10175 | 4661 ft | 259 kts | 309° |
| 2026-05-05 19:25 | 38.94474 | 16.08465 | 5669 ft | 258 kts | 317° |
| 2026-05-05 19:26 | 38.95942 | 16.07113 | 6597 ft | 260 kts | 326° |
| 2026-05-05 19:26 | 38.97482 | 16.05875 | 7447 ft | 263 kts | 326° |
| 2026-05-05 19:26 | 38.99047 | 16.04615 | 8248 ft | 268 kts | 325° |
| 2026-05-05 19:26 | 39.00611 | 16.03342 | 9079 ft | 271 kts | 325° |
| 2026-05-05 19:27 | 39.02208 | 16.02027 | 9937 ft | 274 kts | 324° |
| 2026-05-05 19:27 | 39.03831 | 16.00679 | 10535 ft | 286 kts | 324° |
| 2026-05-05 19:27 | 39.05502 | 15.99277 | 10700 ft | 311 kts | 323° |
| 2026-05-05 19:27 | 39.07374 | 15.97701 | 10980 ft | 331 kts | 323° |
| 2026-05-05 19:28 | 39.09328 | 15.96053 | 11573 ft | 339 kts | 323° |
| 2026-05-05 19:28 | 39.11311 | 15.94381 | 12317 ft | 342 kts | 323° |
| 2026-05-05 19:28 | 39.13312 | 15.92690 | 13070 ft | 346 kts | 323° |
| 2026-05-05 19:28 | 39.15334 | 15.90979 | 13770 ft | 350 kts | 323° |
| 2026-05-05 19:29 | 39.17381 | 15.89243 | 14467 ft | 354 kts | 323° |
| 2026-05-05 19:29 | 39.19443 | 15.87493 | 15143 ft | 357 kts | 323° |
| 2026-05-05 19:29 | 39.21528 | 15.85722 | 15803 ft | 360 kts | 323° |
| 2026-05-05 19:29 | 39.23631 | 15.83935 | 16462 ft | 364 kts | 323° |
| 2026-05-05 19:30 | 39.25751 | 15.82131 | 17096 ft | 367 kts | 323° |
| 2026-05-05 19:30 | 39.27888 | 15.80297 | 17725 ft | 371 kts | 321° |
| 2026-05-05 19:30 | 39.29925 | 15.78249 | 18352 ft | 372 kts | 317° |
| 2026-05-05 19:30 | 39.31906 | 15.76065 | 18901 ft | 375 kts | 316° |
| 2026-05-05 19:31 | 39.33850 | 15.73872 | 19451 ft | 378 kts | 316° |
| 2026-05-05 19:31 | 39.35859 | 15.71602 | 20018 ft | 380 kts | 316° |
| 2026-05-05 19:31 | 39.37863 | 15.69351 | 20570 ft | 383 kts | 316° |
| 2026-05-05 19:31 | 39.39888 | 15.67088 | 21108 ft | 386 kts | 316° |
| 2026-05-05 19:32 | 39.41930 | 15.64816 | 21637 ft | 389 kts | 316° |
| 2026-05-05 19:32 | 39.43966 | 15.62555 | 22133 ft | 392 kts | 316° |
| 2026-05-05 19:32 | 39.46047 | 15.60246 | 22627 ft | 396 kts | 316° |
| 2026-05-05 19:32 | 39.48145 | 15.57919 | 23129 ft | 398 kts | 316° |
| 2026-05-05 19:33 | 39.50252 | 15.55579 | 23633 ft | 401 kts | 316° |
| 2026-05-05 19:33 | 39.52377 | 15.53219 | 24047 ft | 403 kts | 316° |
| 2026-05-05 19:33 | 39.54504 | 15.50854 | 24492 ft | 404 kts | 316° |
| 2026-05-05 19:33 | 39.56639 | 15.48478 | 24947 ft | 405 kts | 316° |
| 2026-05-05 19:34 | 39.58779 | 15.46094 | 25372 ft | 406 kts | 316° |
| 2026-05-05 19:34 | 39.60926 | 15.43700 | 25783 ft | 408 kts | 316° |
| 2026-05-05 19:34 | 39.63082 | 15.41292 | 26187 ft | 410 kts | 316° |
| 2026-05-05 19:35 | 39.67416 | 15.36450 | 26979 ft | 413 kts | 316° |
| 2026-05-05 19:35 | 39.69577 | 15.34031 | 27354 ft | 414 kts | 315° |
| 2026-05-05 19:35 | 39.71629 | 15.31409 | 27717 ft | 413 kts | 308° |
| 2026-05-05 19:35 | 39.73329 | 15.28442 | 28083 ft | 412 kts | 302° |
| 2026-05-05 19:36 | 39.74407 | 15.26369 | 28284 ft | 414 kts | 302° |
| 2026-05-05 19:36 | 39.76019 | 15.23250 | 28587 ft | 417 kts | 301° |
| 2026-05-05 19:36 | 39.77639 | 15.20115 | 28931 ft | 418 kts | 302° |
| 2026-05-05 19:36 | 39.79269 | 15.16972 | 29285 ft | 420 kts | 302° |
| 2026-05-05 19:37 | 39.80907 | 15.13823 | 29621 ft | 421 kts | 302° |
| 2026-05-05 19:37 | 39.82556 | 15.10660 | 29954 ft | 422 kts | 302° |
| 2026-05-05 19:37 | 39.84203 | 15.07504 | 30353 ft | 421 kts | 302° |
| 2026-05-05 19:37 | 39.85842 | 15.04364 | 30774 ft | 418 kts | 302° |
| 2026-05-05 19:38 | 39.87475 | 15.01235 | 31145 ft | 417 kts | 302° |
| 2026-05-05 19:38 | 39.89006 | 14.98298 | 31435 ft | 417 kts | 302° |
| 2026-05-05 19:38 | 39.90636 | 14.95170 | 31754 ft | 417 kts | 302° |
| 2026-05-05 19:38 | 39.92262 | 14.92043 | 32124 ft | 416 kts | 302° |
| 2026-05-05 19:39 | 39.93882 | 14.88927 | 32438 ft | 416 kts | 302° |
| 2026-05-05 19:39 | 39.95503 | 14.85805 | 32760 ft | 415 kts | 302° |
| 2026-05-05 19:39 | 39.97118 | 14.82691 | 33161 ft | 413 kts | 302° |
| 2026-05-05 19:39 | 39.98723 | 14.79592 | 33500 ft | 412 kts | 302° |
| 2026-05-05 19:40 | 40.00316 | 14.76515 | 33787 ft | 412 kts | 302° |
| 2026-05-05 19:40 | 40.01919 | 14.73415 | 34070 ft | 412 kts | 302° |
| 2026-05-05 19:40 | 40.03517 | 14.70320 | 34363 ft | 411 kts | 302° |
| 2026-05-05 19:40 | 40.05112 | 14.67229 | 34628 ft | 411 kts | 302° |
| 2026-05-05 19:41 | 40.06706 | 14.64137 | 34864 ft | 411 kts | 302° |
| 2026-05-05 19:41 | 40.08301 | 14.61041 | 35091 ft | 411 kts | 302° |
| 2026-05-05 19:41 | 40.09891 | 14.57950 | 35343 ft | 410 kts | 302° |
| 2026-05-05 19:41 | 40.11483 | 14.54854 | 35600 ft | 410 kts | 301° |
| 2026-05-05 19:42 | 40.13067 | 14.51770 | 35833 ft | 409 kts | 301° |
| 2026-05-05 19:42 | 40.14653 | 14.48677 | 36050 ft | 409 kts | 301° |
| 2026-05-05 19:42 | 40.16236 | 14.45588 | 36286 ft | 409 kts | 301° |
| 2026-05-05 19:42 | 40.17819 | 14.42497 | 36522 ft | 408 kts | 301° |
| 2026-05-05 19:43 | 40.19398 | 14.39411 | 36744 ft | 408 kts | 301° |
| 2026-05-05 19:43 | 40.20977 | 14.36320 | 36946 ft | 408 kts | 301° |
| 2026-05-05 19:43 | 40.22553 | 14.33234 | 37177 ft | 408 kts | 301° |
| 2026-05-05 19:43 | 40.24124 | 14.30154 | 37428 ft | 407 kts | 301° |
| 2026-05-05 19:44 | 40.25689 | 14.27082 | 37712 ft | 405 kts | 301° |
| 2026-05-05 19:44 | 40.27247 | 14.24021 | 37941 ft | 404 kts | 301° |
| 2026-05-05 19:44 | 40.28807 | 14.20955 | 38066 ft | 405 kts | 301° |
| 2026-05-05 19:45 | 40.31950 | 14.14761 | 38078 ft | 410 kts | 301° |
| 2026-05-05 19:45 | 40.35097 | 14.08552 | 38074 ft | 408 kts | 301° |
| 2026-05-05 19:46 | 40.38233 | 14.02352 | 38075 ft | 407 kts | 301° |
| 2026-05-05 19:46 | 40.41268 | 13.96339 | 38077 ft | 407 kts | 301° |
| 2026-05-05 19:47 | 40.44383 | 13.90156 | 38073 ft | 406 kts | 301° |
| 2026-05-05 19:47 | 40.47492 | 13.83972 | 38068 ft | 405 kts | 300° |
| 2026-05-05 19:48 | 40.50574 | 13.77830 | 38077 ft | 406 kts | 300° |
| 2026-05-05 19:48 | 40.53680 | 13.71627 | 38090 ft | 407 kts | 300° |
| 2026-05-05 19:49 | 40.56789 | 13.65405 | 38087 ft | 408 kts | 300° |
| 2026-05-05 19:49 | 40.59904 | 13.59160 | 38076 ft | 409 kts | 300° |
| 2026-05-05 19:50 | 40.63026 | 13.52888 | 38073 ft | 410 kts | 300° |
| 2026-05-05 19:50 | 40.66145 | 13.46609 | 38055 ft | 410 kts | 300° |
| 2026-05-05 19:51 | 40.69269 | 13.40307 | 38076 ft | 411 kts | 300° |
| 2026-05-05 19:51 | 40.72398 | 13.33983 | 38075 ft | 412 kts | 300° |
| 2026-05-05 19:52 | 40.75531 | 13.27638 | 38081 ft | 413 kts | 300° |
| 2026-05-05 19:52 | 40.78665 | 13.21277 | 38071 ft | 414 kts | 300° |
| 2026-05-05 19:53 | 40.81801 | 13.14898 | 38077 ft | 414 kts | 300° |
| 2026-05-05 19:53 | 40.84933 | 13.08516 | 38074 ft | 414 kts | 300° |
| 2026-05-05 19:54 | 40.88057 | 13.02138 | 38068 ft | 413 kts | 300° |
| 2026-05-05 19:54 | 40.91117 | 12.95978 | 38065 ft | 412 kts | 303° |
| 2026-05-05 19:55 | 40.95030 | 12.90385 | 38064 ft | 415 kts | 311° |
| 2026-05-05 19:55 | 40.99085 | 12.84977 | 38066 ft | 413 kts | 310° |
| 2026-05-05 19:56 | 41.03099 | 12.79566 | 38064 ft | 412 kts | 310° |
| 2026-05-05 19:56 | 41.07095 | 12.74135 | 38087 ft | 411 kts | 310° |
| 2026-05-05 19:57 | 41.11083 | 12.68693 | 38067 ft | 411 kts | 310° |
| 2026-05-05 19:57 | 41.15069 | 12.63246 | 38058 ft | 411 kts | 310° |
| 2026-05-05 19:58 | 41.19052 | 12.57794 | 38057 ft | 411 kts | 310° |
| 2026-05-05 19:58 | 41.23036 | 12.52333 | 38058 ft | 412 kts | 310° |
| 2026-05-05 19:59 | 41.27031 | 12.46870 | 38052 ft | 412 kts | 310° |
| 2026-05-05 19:59 | 41.31030 | 12.41397 | 38053 ft | 413 kts | 310° |
| 2026-05-05 20:00 | 41.35022 | 12.35921 | 38053 ft | 414 kts | 309° |
| 2026-05-05 20:00 | 41.38992 | 12.30462 | 38050 ft | 413 kts | 309° |
| 2026-05-05 20:01 | 41.42980 | 12.24969 | 38047 ft | 412 kts | 309° |
| 2026-05-05 20:01 | 41.46957 | 12.19480 | 38041 ft | 411 kts | 309° |
| 2026-05-05 20:02 | 41.50922 | 12.13998 | 38037 ft | 410 kts | 309° |
| 2026-05-05 20:02 | 41.54869 | 12.08522 | 38037 ft | 409 kts | 309° |
| 2026-05-05 20:03 | 41.58802 | 12.03052 | 38054 ft | 408 kts | 308° |
| 2026-05-05 20:03 | 41.62613 | 11.97741 | 38036 ft | 407 kts | 308° |
| 2026-05-05 20:04 | 41.66527 | 11.92280 | 38038 ft | 406 kts | 308° |
| 2026-05-05 20:04 | 41.70426 | 11.86829 | 38035 ft | 405 kts | 308° |
| 2026-05-05 20:05 | 41.74320 | 11.81376 | 38038 ft | 405 kts | 308° |
| 2026-05-05 20:05 | 41.78204 | 11.75929 | 38035 ft | 404 kts | 308° |
| 2026-05-05 20:06 | 41.82085 | 11.70477 | 38047 ft | 404 kts | 308° |
| 2026-05-05 20:06 | 41.85960 | 11.65016 | 38033 ft | 405 kts | 307° |
| 2026-05-05 20:07 | 41.89843 | 11.59533 | 38022 ft | 405 kts | 307° |
| 2026-05-05 20:07 | 41.93724 | 11.54042 | 38025 ft | 406 kts | 307° |
| 2026-05-05 20:08 | 41.97610 | 11.48533 | 38014 ft | 406 kts | 307° |
| 2026-05-05 20:08 | 42.01498 | 11.43013 | 38004 ft | 407 kts | 307° |
| 2026-05-05 20:09 | 42.05351 | 11.37532 | 38045 ft | 408 kts | 307° |
| 2026-05-05 20:09 | 42.09249 | 11.31982 | 38016 ft | 409 kts | 307° |
| 2026-05-05 20:10 | 42.13153 | 11.26417 | 38006 ft | 409 kts | 307° |
| 2026-05-05 20:10 | 42.17065 | 11.20827 | 38007 ft | 410 kts | 307° |
| 2026-05-05 20:11 | 42.20978 | 11.15225 | 38003 ft | 411 kts | 307° |
| 2026-05-05 20:11 | 42.24892 | 11.09610 | 38009 ft | 411 kts | 307° |
| 2026-05-05 20:12 | 42.28810 | 11.03978 | 38006 ft | 411 kts | 307° |
| 2026-05-05 20:12 | 42.32599 | 10.98521 | 37996 ft | 411 kts | 306° |
| 2026-05-05 20:13 | 42.36534 | 10.92898 | 37994 ft | 413 kts | 310° |
| 2026-05-05 20:13 | 42.41125 | 10.88080 | 37996 ft | 420 kts | 317° |
| 2026-05-05 20:14 | 42.45861 | 10.83458 | 37989 ft | 419 kts | 317° |
| 2026-05-05 20:14 | 42.50580 | 10.78813 | 37986 ft | 419 kts | 316° |
| 2026-05-05 20:15 | 42.55278 | 10.74146 | 37995 ft | 419 kts | 316° |
| 2026-05-05 20:15 | 42.59965 | 10.69467 | 37984 ft | 418 kts | 316° |
| 2026-05-05 20:16 | 42.64646 | 10.64783 | 37984 ft | 418 kts | 316° |
| 2026-05-05 20:16 | 42.69320 | 10.60098 | 37983 ft | 417 kts | 316° |
| 2026-05-05 20:17 | 42.73993 | 10.55404 | 37989 ft | 418 kts | 316° |
| 2026-05-05 20:17 | 42.78669 | 10.50698 | 37986 ft | 418 kts | 316° |
| 2026-05-05 20:18 | 42.83349 | 10.45980 | 37975 ft | 419 kts | 316° |
| 2026-05-05 20:18 | 42.88036 | 10.41246 | 37976 ft | 419 kts | 316° |
| 2026-05-05 20:19 | 42.92725 | 10.36501 | 37972 ft | 420 kts | 316° |
| 2026-05-05 20:19 | 42.97413 | 10.31748 | 37990 ft | 420 kts | 316° |
| 2026-05-05 20:20 | 43.01304 | 10.27795 | 37977 ft | 421 kts | 315° |
| 2026-05-05 20:20 | 43.06003 | 10.23013 | 37970 ft | 421 kts | 315° |
| 2026-05-05 20:21 | 43.10699 | 10.18225 | 37973 ft | 422 kts | 315° |
| 2026-05-05 20:21 | 43.15405 | 10.13417 | 37970 ft | 422 kts | 315° |
| 2026-05-05 20:22 | 43.20108 | 10.08603 | 37984 ft | 423 kts | 315° |
| 2026-05-05 20:22 | 43.24815 | 10.03774 | 37974 ft | 423 kts | 315° |
| 2026-05-05 20:23 | 43.29386 | 9.99076 | 37967 ft | 423 kts | 315° |
| 2026-05-05 20:23 | 43.34092 | 9.94232 | 37968 ft | 423 kts | 315° |
| 2026-05-05 20:24 | 43.38847 | 9.89453 | 37962 ft | 427 kts | 320° |
| 2026-05-05 20:24 | 43.44028 | 9.85401 | 37957 ft | 422 kts | 323° |
| 2026-05-05 20:24 | 43.46582 | 9.83506 | 37823 ft | 412 kts | 323° |
| 2026-05-05 20:25 | 43.49092 | 9.81626 | 37782 ft | 411 kts | 323° |
| 2026-05-05 20:25 | 43.54043 | 9.77847 | 37167 ft | 402 kts | 322° |
| 2026-05-05 20:25 | 43.56499 | 9.75944 | 36245 ft | 410 kts | 321° |
| 2026-05-05 20:26 | 43.58978 | 9.74007 | 35410 ft | 419 kts | 321° |
| 2026-05-05 20:26 | 43.61520 | 9.72027 | 34903 ft | 420 kts | 321° |
| 2026-05-05 20:26 | 43.64089 | 9.70036 | 34581 ft | 415 kts | 320° |
| 2026-05-05 20:26 | 43.66551 | 9.68128 | 34267 ft | 410 kts | 320° |
| 2026-05-05 20:27 | 43.69064 | 9.66174 | 33866 ft | 407 kts | 320° |
| 2026-05-05 20:27 | 43.71490 | 9.64280 | 33400 ft | 405 kts | 320° |
| 2026-05-05 20:27 | 43.73939 | 9.62366 | 32956 ft | 403 kts | 320° |
| 2026-05-05 20:27 | 43.76374 | 9.60464 | 32547 ft | 401 kts | 320° |
| 2026-05-05 20:28 | 43.78824 | 9.58550 | 32143 ft | 398 kts | 320° |
| 2026-05-05 20:28 | 43.81198 | 9.56694 | 31752 ft | 396 kts | 320° |
| 2026-05-05 20:28 | 43.83588 | 9.54824 | 31372 ft | 393 kts | 320° |
| 2026-05-05 20:28 | 43.85965 | 9.52960 | 30935 ft | 393 kts | 320° |
| 2026-05-05 20:29 | 43.88341 | 9.51094 | 30511 ft | 391 kts | 320° |
| 2026-05-05 20:29 | 43.90701 | 9.49240 | 30163 ft | 389 kts | 320° |
| 2026-05-05 20:29 | 43.93047 | 9.47397 | 29767 ft | 386 kts | 321° |
| 2026-05-05 20:29 | 43.95379 | 9.45565 | 29405 ft | 383 kts | 320° |
| 2026-05-05 20:30 | 43.97732 | 9.43753 | 28976 ft | 383 kts | 324° |
| 2026-05-05 20:30 | 44.00193 | 9.42425 | 28654 ft | 391 kts | 335° |
| 2026-05-05 20:30 | 44.02829 | 9.41503 | 28294 ft | 391 kts | 338° |
| 2026-05-05 20:30 | 44.05478 | 9.40658 | 27944 ft | 391 kts | 338° |
| 2026-05-05 20:31 | 44.08151 | 9.39817 | 27587 ft | 398 kts | 338° |
| 2026-05-05 20:31 | 44.10871 | 9.38951 | 27227 ft | 403 kts | 339° |
| 2026-05-05 20:31 | 44.13607 | 9.38071 | 26845 ft | 403 kts | 339° |
| 2026-05-05 20:31 | 44.16334 | 9.37186 | 26469 ft | 401 kts | 339° |
| 2026-05-05 20:32 | 44.19047 | 9.36298 | 26106 ft | 400 kts | 339° |
| 2026-05-05 20:32 | 44.21744 | 9.35408 | 25745 ft | 398 kts | 339° |
| 2026-05-05 20:32 | 44.24432 | 9.34517 | 25401 ft | 396 kts | 339° |
| 2026-05-05 20:32 | 44.27107 | 9.33628 | 25038 ft | 395 kts | 339° |
| 2026-05-05 20:33 | 44.29775 | 9.32738 | 24678 ft | 393 kts | 340° |
| 2026-05-05 20:33 | 44.32431 | 9.31852 | 24322 ft | 392 kts | 340° |
| 2026-05-05 20:33 | 44.35081 | 9.30968 | 23971 ft | 390 kts | 340° |
| 2026-05-05 20:33 | 44.37709 | 9.30090 | 23712 ft | 386 kts | 340° |
| 2026-05-05 20:34 | 44.40301 | 9.29226 | 23408 ft | 379 kts | 340° |
| 2026-05-05 20:34 | 44.42853 | 9.28373 | 22912 ft | 377 kts | 340° |
| 2026-05-05 20:34 | 44.45398 | 9.27520 | 22399 ft | 375 kts | 340° |
| 2026-05-05 20:34 | 44.47924 | 9.26673 | 21907 ft | 372 kts | 340° |
| 2026-05-05 20:35 | 44.50425 | 9.25833 | 21445 ft | 368 kts | 340° |
| 2026-05-05 20:35 | 44.52877 | 9.25009 | 20979 ft | 366 kts | 340° |
| 2026-05-05 20:35 | 44.55381 | 9.24167 | 20406 ft | 366 kts | 340° |
| 2026-05-05 20:35 | 44.57822 | 9.23342 | 20004 ft | 366 kts | 340° |
| 2026-05-05 20:36 | 44.60295 | 9.22508 | 19630 ft | 365 kts | 340° |
| 2026-05-05 20:36 | 44.62782 | 9.21670 | 19302 ft | 362 kts | 341° |
| 2026-05-05 20:36 | 44.65226 | 9.20847 | 18978 ft | 358 kts | 341° |
| 2026-05-05 20:36 | 44.67618 | 9.20042 | 18817 ft | 350 kts | 341° |
| 2026-05-05 20:37 | 44.69966 | 9.19249 | 18660 ft | 344 kts | 340° |
| 2026-05-05 20:37 | 44.72276 | 9.18466 | 18538 ft | 340 kts | 340° |
| 2026-05-05 20:37 | 44.74588 | 9.17681 | 18395 ft | 344 kts | 340° |
| 2026-05-05 20:37 | 44.76932 | 9.16965 | 18199 ft | 348 kts | 349° |
| 2026-05-05 20:38 | 44.79360 | 9.17246 | 17926 ft | 354 kts | 13° |
| 2026-05-05 20:38 | 44.81576 | 9.18723 | 17639 ft | 354 kts | 35° |
| 2026-05-05 20:38 | 44.83307 | 9.21136 | 17347 ft | 350 kts | 55° |
| 2026-05-05 20:38 | 44.84406 | 9.24164 | 16951 ft | 347 kts | 75° |
| 2026-05-05 20:39 | 44.84771 | 9.27424 | 16568 ft | 339 kts | 98° |
| 2026-05-05 20:39 | 44.84265 | 9.30585 | 16189 ft | 326 kts | 118° |
| 2026-05-05 20:39 | 44.83197 | 9.33346 | 15824 ft | 318 kts | 131° |
| 2026-05-05 20:39 | 44.81690 | 9.35555 | 15447 ft | 309 kts | 147° |
| 2026-05-05 20:40 | 44.79962 | 9.37322 | 15083 ft | 307 kts | 151° |
| 2026-05-05 20:40 | 44.78196 | 9.39017 | 14726 ft | 307 kts | 151° |
| 2026-05-05 20:40 | 44.76433 | 9.40711 | 14361 ft | 307 kts | 151° |
| 2026-05-05 20:40 | 44.74673 | 9.42419 | 14010 ft | 308 kts | 150° |
| 2026-05-05 20:41 | 44.72913 | 9.44135 | 13656 ft | 309 kts | 150° |
| 2026-05-05 20:41 | 44.71045 | 9.45543 | 13227 ft | 301 kts | 168° |
| 2026-05-05 20:41 | 44.69016 | 9.45934 | 12924 ft | 290 kts | 185° |
| 2026-05-05 20:41 | 44.67058 | 9.45540 | 12677 ft | 280 kts | 200° |
| 2026-05-05 20:42 | 44.65300 | 9.44495 | 12450 ft | 272 kts | 213° |
| 2026-05-05 20:42 | 44.63838 | 9.42875 | 12207 ft | 266 kts | 227° |
| 2026-05-05 20:42 | 44.62774 | 9.40793 | 12027 ft | 260 kts | 243° |
| 2026-05-05 20:42 | 44.62178 | 9.38450 | 11971 ft | 251 kts | 257° |
| 2026-05-05 20:43 | 44.62049 | 9.36062 | 11966 ft | 243 kts | 270° |
| 2026-05-05 20:43 | 44.62356 | 9.33727 | 11976 ft | 245 kts | 283° |
| 2026-05-05 20:43 | 44.62983 | 9.31479 | 11967 ft | 250 kts | 291° |
| 2026-05-05 20:43 | 44.63917 | 9.29420 | 11966 ft | 250 kts | 306° |
| 2026-05-05 20:44 | 44.65258 | 9.27821 | 12016 ft | 258 kts | 319° |
| 2026-05-05 20:44 | 44.66764 | 9.26358 | 12021 ft | 267 kts | 319° |
| 2026-05-05 20:44 | 44.68278 | 9.24845 | 12006 ft | 267 kts | 319° |
| 2026-05-05 20:44 | 44.69785 | 9.23340 | 11945 ft | 262 kts | 319° |
| 2026-05-05 20:45 | 44.72681 | 9.20431 | 11991 ft | 257 kts | 319° |
| 2026-05-05 20:45 | 44.74176 | 9.18959 | 11985 ft | 266 kts | 320° |
| 2026-05-05 20:45 | 44.75695 | 9.17471 | 11985 ft | 266 kts | 320° |
| 2026-05-05 20:46 | 44.77368 | 9.16332 | 11964 ft | 273 kts | 344° |
| 2026-05-05 20:46 | 44.79267 | 9.16299 | 11971 ft | 279 kts | 9° |
| 2026-05-05 20:46 | 44.81045 | 9.17386 | 11963 ft | 282 kts | 36° |
| 2026-05-05 20:46 | 44.82316 | 9.19453 | 11976 ft | 281 kts | 65° |
| 2026-05-05 20:47 | 44.82796 | 9.22092 | 11969 ft | 280 kts | 94° |
| 2026-05-05 20:47 | 44.82396 | 9.24725 | 11982 ft | 273 kts | 121° |
| 2026-05-05 20:47 | 44.81307 | 9.26849 | 11962 ft | 265 kts | 143° |
| 2026-05-05 20:47 | 44.79854 | 9.28392 | 11979 ft | 261 kts | 151° |
| 2026-05-05 20:48 | 44.78354 | 9.29832 | 11969 ft | 262 kts | 151° |
| 2026-05-05 20:48 | 44.76846 | 9.31282 | 11980 ft | 263 kts | 151° |
| 2026-05-05 20:48 | 44.75346 | 9.32740 | 11935 ft | 260 kts | 150° |
| 2026-05-05 20:48 | 44.73790 | 9.33920 | 11925 ft | 248 kts | 173° |
| 2026-05-05 20:49 | 44.72121 | 9.34002 | 11982 ft | 243 kts | 193° |
| 2026-05-05 20:49 | 44.70523 | 9.33270 | 11985 ft | 242 kts | 212° |
| 2026-05-05 20:49 | 44.69253 | 9.31767 | 11980 ft | 238 kts | 233° |
| 2026-05-05 20:49 | 44.68502 | 9.29709 | 11966 ft | 238 kts | 253° |
| 2026-05-05 20:50 | 44.68375 | 9.27392 | 11930 ft | 240 kts | 274° |
| 2026-05-05 20:50 | 44.68870 | 9.25168 | 11981 ft | 244 kts | 292° |
| 2026-05-05 20:50 | 44.69916 | 9.23196 | 11965 ft | 262 kts | 314° |
| 2026-05-05 20:50 | 44.71392 | 9.21691 | 11985 ft | 262 kts | 320° |
| 2026-05-05 20:51 | 44.72884 | 9.20237 | 11980 ft | 259 kts | 320° |
| 2026-05-05 20:51 | 44.74367 | 9.18789 | 11978 ft | 260 kts | 320° |
| 2026-05-05 20:51 | 44.75860 | 9.17329 | 11986 ft | 263 kts | 320° |
| 2026-05-05 20:51 | 44.77544 | 9.16248 | 11961 ft | 274 kts | 346° |
| 2026-05-05 20:52 | 44.79462 | 9.16321 | 11974 ft | 283 kts | 12° |
| 2026-05-05 20:52 | 44.81375 | 9.16924 | 11950 ft | 279 kts | 354° |
| 2026-05-05 20:52 | 44.83151 | 9.16168 | 11983 ft | 262 kts | 318° |
| 2026-05-05 20:52 | 44.84246 | 9.14230 | 11989 ft | 251 kts | 292° |
| 2026-05-05 20:53 | 44.85159 | 9.12105 | 11971 ft | 257 kts | 302° |
| 2026-05-05 20:53 | 44.86246 | 9.10096 | 11979 ft | 259 kts | 304° |
| 2026-05-05 20:53 | 44.87382 | 9.08123 | 11973 ft | 260 kts | 305° |
| 2026-05-05 20:53 | 44.88547 | 9.06158 | 11965 ft | 261 kts | 306° |
| 2026-05-05 20:54 | 44.89725 | 9.04207 | 11954 ft | 261 kts | 306° |
| 2026-05-05 20:54 | 44.90892 | 9.02294 | 11962 ft | 260 kts | 306° |
| 2026-05-05 20:54 | 44.92075 | 9.00369 | 11976 ft | 259 kts | 307° |
| 2026-05-05 20:54 | 44.93190 | 8.98561 | 11962 ft | 259 kts | 307° |
| 2026-05-05 20:55 | 44.94388 | 8.96627 | 11966 ft | 258 kts | 307° |
| 2026-05-05 20:55 | 44.95555 | 8.94744 | 11973 ft | 258 kts | 307° |
| 2026-05-05 20:55 | 44.96737 | 8.92839 | 11964 ft | 258 kts | 307° |
| 2026-05-05 20:55 | 44.97920 | 8.90934 | 11969 ft | 257 kts | 307° |
| 2026-05-05 20:56 | 44.99115 | 8.89010 | 11976 ft | 257 kts | 307° |
| 2026-05-05 20:56 | 45.00291 | 8.87116 | 11967 ft | 257 kts | 307° |
| 2026-05-05 20:56 | 45.01458 | 8.85237 | 11964 ft | 258 kts | 307° |
| 2026-05-05 20:56 | 45.02639 | 8.83333 | 11973 ft | 258 kts | 307° |
| 2026-05-05 20:57 | 45.03838 | 8.81399 | 11971 ft | 259 kts | 307° |
| 2026-05-05 20:57 | 45.05011 | 8.79507 | 11970 ft | 259 kts | 307° |
| 2026-05-05 20:57 | 45.06200 | 8.77588 | 11971 ft | 260 kts | 307° |
| 2026-05-05 20:57 | 45.07392 | 8.75662 | 11968 ft | 260 kts | 307° |
| 2026-05-05 20:58 | 45.08586 | 8.73732 | 11967 ft | 261 kts | 307° |
| 2026-05-05 20:58 | 45.09797 | 8.71774 | 11969 ft | 261 kts | 307° |
| 2026-05-05 20:58 | 45.10995 | 8.69836 | 11968 ft | 262 kts | 307° |
| 2026-05-05 20:58 | 45.12188 | 8.67903 | 11967 ft | 262 kts | 307° |
| 2026-05-05 20:59 | 45.13374 | 8.65982 | 11968 ft | 262 kts | 307° |
| 2026-05-05 20:59 | 45.14571 | 8.64040 | 11970 ft | 261 kts | 307° |
| 2026-05-05 20:59 | 45.15766 | 8.62101 | 11970 ft | 261 kts | 307° |
| 2026-05-05 20:59 | 45.16959 | 8.60164 | 11987 ft | 261 kts | 307° |
| 2026-05-05 21:00 | 45.18154 | 8.58223 | 11986 ft | 261 kts | 307° |
| 2026-05-05 21:00 | 45.19346 | 8.56285 | 11987 ft | 261 kts | 307° |
| 2026-05-05 21:00 | 45.20551 | 8.54324 | 11993 ft | 260 kts | 307° |
| 2026-05-05 21:00 | 45.21696 | 8.52380 | 11984 ft | 258 kts | 298° |
| 2026-05-05 21:01 | 45.22277 | 8.50054 | 11997 ft | 249 kts | 271° |
| 2026-05-05 21:01 | 45.22168 | 8.47636 | 11991 ft | 246 kts | 253° |
| 2026-05-05 21:01 | 45.21521 | 8.45418 | 11996 ft | 244 kts | 239° |
| 2026-05-05 21:01 | 45.20407 | 8.43635 | 11979 ft | 243 kts | 214° |
| 2026-05-05 21:02 | 45.18885 | 8.42606 | 11983 ft | 245 kts | 197° |
| 2026-05-05 21:02 | 45.17161 | 8.42324 | 11976 ft | 249 kts | 177° |
| 2026-05-05 21:02 | 45.15443 | 8.42698 | 11985 ft | 251 kts | 172° |
| 2026-05-05 21:02 | 45.13723 | 8.43192 | 11978 ft | 253 kts | 171° |
| 2026-05-05 21:03 | 45.12005 | 8.43728 | 11969 ft | 254 kts | 165° |
| 2026-05-05 21:03 | 45.10490 | 8.45025 | 11977 ft | 259 kts | 138° |
| 2026-05-05 21:03 | 45.09481 | 8.47156 | 11959 ft | 266 kts | 114° |
| 2026-05-05 21:03 | 45.09168 | 8.49738 | 11970 ft | 271 kts | 88° |
| 2026-05-05 21:04 | 45.09417 | 8.51470 | 11964 ft | 274 kts | 69° |
| 2026-05-05 21:04 | 45.10482 | 8.53688 | 11966 ft | 275 kts | 40° |
| 2026-05-05 21:04 | 45.12144 | 8.54941 | 11973 ft | 272 kts | 11° |
| 2026-05-05 21:04 | 45.14004 | 8.55081 | 11976 ft | 268 kts | 348° |
| 2026-05-05 21:05 | 45.15835 | 8.54593 | 11971 ft | 270 kts | 345° |
| 2026-05-05 21:05 | 45.17690 | 8.54050 | 11775 ft | 274 kts | 345° |
| 2026-05-05 21:05 | 45.19564 | 8.53514 | 11605 ft | 274 kts | 346° |
| 2026-05-05 21:05 | 45.21418 | 8.52990 | 11415 ft | 270 kts | 343° |
| 2026-05-05 21:06 | 45.23073 | 8.51904 | 11202 ft | 258 kts | 314° |
| 2026-05-05 21:06 | 45.24103 | 8.49908 | 11080 ft | 250 kts | 288° |
| 2026-05-05 21:06 | 45.24430 | 8.47510 | 11026 ft | 248 kts | 265° |
| 2026-05-05 21:06 | 45.24038 | 8.45178 | 10995 ft | 243 kts | 241° |
| 2026-05-05 21:07 | 45.22998 | 8.43324 | 10985 ft | 241 kts | 217° |
| 2026-05-05 21:07 | 45.21515 | 8.42242 | 10991 ft | 243 kts | 197° |
| 2026-05-05 21:07 | 45.19833 | 8.42017 | 10979 ft | 246 kts | 175° |
| 2026-05-05 21:07 | 45.18142 | 8.42447 | 10986 ft | 247 kts | 171° |
| 2026-05-05 21:08 | 45.16452 | 8.42928 | 10974 ft | 248 kts | 171° |
| 2026-05-05 21:08 | 45.14761 | 8.43406 | 10975 ft | 248 kts | 171° |
| 2026-05-05 21:08 | 45.13067 | 8.43880 | 10978 ft | 248 kts | 171° |
| 2026-05-05 21:08 | 45.11421 | 8.44607 | 10965 ft | 252 kts | 150° |
| 2026-05-05 21:09 | 45.10160 | 8.46327 | 10975 ft | 256 kts | 125° |
| 2026-05-05 21:09 | 45.09514 | 8.48683 | 10964 ft | 261 kts | 100° |
| 2026-05-05 21:09 | 45.09639 | 8.51247 | 10971 ft | 266 kts | 73° |
| 2026-05-05 21:09 | 45.10580 | 8.53482 | 10971 ft | 268 kts | 44° |
| 2026-05-05 21:10 | 45.12158 | 8.54835 | 10971 ft | 267 kts | 14° |
| 2026-05-05 21:10 | 45.13984 | 8.55068 | 10978 ft | 264 kts | 351° |
| 2026-05-05 21:10 | 45.15783 | 8.54614 | 10897 ft | 268 kts | 346° |
| 2026-05-05 21:10 | 45.17616 | 8.54078 | 10742 ft | 270 kts | 346° |
| 2026-05-05 21:11 | 45.19456 | 8.53549 | 10573 ft | 269 kts | 346° |
| 2026-05-05 21:11 | 45.21281 | 8.53035 | 10391 ft | 265 kts | 345° |
| 2026-05-05 21:11 | 45.22934 | 8.52040 | 10195 ft | 255 kts | 317° |
| 2026-05-05 21:11 | 45.23976 | 8.50099 | 10032 ft | 246 kts | 289° |
| 2026-05-05 21:12 | 45.24291 | 8.47760 | 9872 ft | 241 kts | 265° |
| 2026-05-05 21:12 | 45.23884 | 8.45496 | 9689 ft | 238 kts | 240° |
| 2026-05-05 21:12 | 45.22839 | 8.43718 | 9498 ft | 236 kts | 216° |
| 2026-05-05 21:12 | 45.21364 | 8.42716 | 9319 ft | 237 kts | 194° |
| 2026-05-05 21:13 | 45.19725 | 8.42597 | 9136 ft | 239 kts | 173° |
| 2026-05-05 21:13 | 45.18088 | 8.43035 | 9032 ft | 240 kts | 170° |
| 2026-05-05 21:13 | 45.16458 | 8.43495 | 8981 ft | 237 kts | 170° |
| 2026-05-05 21:13 | 45.14845 | 8.43947 | 8980 ft | 236 kts | 170° |
| 2026-05-05 21:14 | 45.13222 | 8.44399 | 8985 ft | 239 kts | 170° |
| 2026-05-05 21:14 | 45.11627 | 8.45113 | 8969 ft | 244 kts | 149° |
| 2026-05-05 21:14 | 45.10431 | 8.46805 | 8973 ft | 247 kts | 123° |
| 2026-05-05 21:14 | 45.09850 | 8.49102 | 8968 ft | 252 kts | 98° |
| 2026-05-05 21:15 | 45.10032 | 8.51573 | 8964 ft | 256 kts | 71° |
| 2026-05-05 21:15 | 45.11006 | 8.53676 | 8968 ft | 259 kts | 41° |
| 2026-05-05 21:15 | 45.12582 | 8.54893 | 8816 ft | 262 kts | 12° |
| 2026-05-05 21:15 | 45.14391 | 8.54983 | 8689 ft | 261 kts | 349° |
| 2026-05-05 21:16 | 45.16173 | 8.54501 | 8535 ft | 259 kts | 347° |
| 2026-05-05 21:16 | 45.17931 | 8.53988 | 8361 ft | 256 kts | 347° |
| 2026-05-05 21:16 | 45.19662 | 8.53493 | 8184 ft | 252 kts | 347° |
| 2026-05-05 21:16 | 45.21383 | 8.53007 | 8058 ft | 253 kts | 346° |
| 2026-05-05 21:17 | 45.22941 | 8.51979 | 7987 ft | 245 kts | 314° |
| 2026-05-05 21:17 | 45.23856 | 8.50018 | 8009 ft | 238 kts | 285° |
| 2026-05-05 21:17 | 45.24018 | 8.47707 | 7993 ft | 238 kts | 259° |
| 2026-05-05 21:17 | 45.23428 | 8.45534 | 7998 ft | 237 kts | 233° |
| 2026-05-05 21:18 | 45.22207 | 8.44018 | 7994 ft | 234 kts | 205° |
| 2026-05-05 21:18 | 45.20642 | 8.43438 | 7979 ft | 234 kts | 182° |
| 2026-05-05 21:18 | 45.19028 | 8.43705 | 7988 ft | 234 kts | 170° |
| 2026-05-05 21:18 | 45.17426 | 8.44162 | 7986 ft | 235 kts | 170° |
| 2026-05-05 21:19 | 45.15817 | 8.44621 | 7976 ft | 236 kts | 170° |
| 2026-05-05 21:19 | 45.14209 | 8.45073 | 7979 ft | 236 kts | 170° |
| 2026-05-05 21:19 | 45.12608 | 8.45583 | 7971 ft | 237 kts | 160° |
| 2026-05-05 21:19 | 45.11277 | 8.46931 | 7969 ft | 240 kts | 130° |
| 2026-05-05 21:20 | 45.10545 | 8.49052 | 7967 ft | 244 kts | 103° |
| 2026-05-05 21:20 | 45.10581 | 8.51504 | 7993 ft | 259 kts | 76° |
| 2026-05-05 21:20 | 45.11501 | 8.53816 | 7838 ft | 286 kts | 45° |
| 2026-05-05 21:20 | 45.13228 | 8.55224 | 7633 ft | 292 kts | 15° |
| 2026-05-05 21:21 | 45.15242 | 8.55461 | 7416 ft | 293 kts | 351° |
| 2026-05-05 21:21 | 45.17235 | 8.54901 | 7191 ft | 290 kts | 346° |
| 2026-05-05 21:21 | 45.19189 | 8.54241 | 6912 ft | 288 kts | 345° |
| 2026-05-05 21:21 | 45.21127 | 8.53583 | 6647 ft | 285 kts | 346° |
| 2026-05-05 21:22 | 45.23049 | 8.52949 | 6397 ft | 282 kts | 346° |
| 2026-05-05 21:22 | 45.24948 | 8.52335 | 6139 ft | 279 kts | 346° |
| 2026-05-05 21:22 | 45.26841 | 8.51728 | 6036 ft | 281 kts | 346° |
| 2026-05-05 21:22 | 45.28763 | 8.51121 | 6002 ft | 282 kts | 349° |
| 2026-05-05 21:23 | 45.30670 | 8.51195 | 5982 ft | 278 kts | 17° |
| 2026-05-05 21:23 | 45.32315 | 8.52534 | 5977 ft | 265 kts | 45° |
| 2026-05-05 21:23 | 45.33341 | 8.54560 | 5980 ft | 249 kts | 67° |
| 2026-05-05 21:23 | 45.33820 | 8.56903 | 5999 ft | 242 kts | 81° |
| 2026-05-05 21:24 | 45.34136 | 8.59214 | 6002 ft | 243 kts | 81° |
| 2026-05-05 21:24 | 45.34453 | 8.61588 | 6005 ft | 245 kts | 82° |
| 2026-05-05 21:24 | 45.34379 | 8.63976 | 5984 ft | 242 kts | 113° |
| 2026-05-05 21:24 | 45.33445 | 8.65870 | 5990 ft | 231 kts | 144° |
| 2026-05-05 21:25 | 45.32077 | 8.66896 | 5993 ft | 216 kts | 165° |
| 2026-05-05 21:25 | 45.30626 | 8.67329 | 6014 ft | 213 kts | 170° |
| 2026-05-05 21:25 | 45.29174 | 8.67714 | 5996 ft | 211 kts | 170° |
| 2026-05-05 21:25 | 45.27734 | 8.68099 | 5986 ft | 210 kts | 170° |
| 2026-05-05 21:26 | 45.26304 | 8.68482 | 5981 ft | 209 kts | 170° |
| 2026-05-05 21:26 | 45.24882 | 8.68865 | 5984 ft | 208 kts | 170° |
| 2026-05-05 21:26 | 45.23465 | 8.69251 | 5987 ft | 208 kts | 170° |
| 2026-05-05 21:26 | 45.22044 | 8.69639 | 5993 ft | 208 kts | 170° |
| 2026-05-05 21:27 | 45.20618 | 8.70028 | 5994 ft | 209 kts | 170° |
| 2026-05-05 21:27 | 45.19182 | 8.70421 | 5972 ft | 210 kts | 170° |
| 2026-05-05 21:27 | 45.17743 | 8.70816 | 5974 ft | 211 kts | 170° |
| 2026-05-05 21:27 | 45.16294 | 8.71214 | 5971 ft | 212 kts | 170° |
| 2026-05-05 21:28 | 45.14844 | 8.71612 | 5969 ft | 213 kts | 170° |
| 2026-05-05 21:28 | 45.13389 | 8.72011 | 5967 ft | 213 kts | 170° |
| 2026-05-05 21:28 | 45.11934 | 8.72410 | 5966 ft | 213 kts | 170° |
| 2026-05-05 21:28 | 45.10480 | 8.72809 | 5964 ft | 213 kts | 170° |
| 2026-05-05 21:29 | 45.09028 | 8.73206 | 5966 ft | 212 kts | 170° |
| 2026-05-05 21:29 | 45.07578 | 8.73603 | 5964 ft | 212 kts | 170° |
| 2026-05-05 21:29 | 45.06132 | 8.73998 | 5967 ft | 211 kts | 170° |
| 2026-05-05 21:29 | 45.04691 | 8.74412 | 5962 ft | 212 kts | 165° |
| 2026-05-05 21:30 | 45.03427 | 8.75498 | 5738 ft | 220 kts | 132° |
| 2026-05-05 21:30 | 45.02786 | 8.77464 | 5438 ft | 225 kts | 98° |
| 2026-05-05 21:30 | 45.03023 | 8.79618 | 5135 ft | 225 kts | 64° |
| 2026-05-05 21:30 | 45.04061 | 8.81231 | 4835 ft | 224 kts | 30° |
| 2026-05-05 21:31 | 45.05535 | 8.81828 | 4540 ft | 220 kts | 6° |
| 2026-05-05 21:31 | 45.07063 | 8.82011 | 4240 ft | 221 kts | 4° |
| 2026-05-05 21:31 | 45.08600 | 8.82132 | 4016 ft | 219 kts | 2° |
| 2026-05-05 21:31 | 45.10138 | 8.82237 | 3979 ft | 222 kts | 2° |
| 2026-05-05 21:32 | 45.11667 | 8.82336 | 3962 ft | 219 kts | 2° |
| 2026-05-05 21:32 | 45.13187 | 8.82432 | 3961 ft | 219 kts | 2° |
| 2026-05-05 21:32 | 45.14710 | 8.82531 | 3968 ft | 220 kts | 2° |
| 2026-05-05 21:32 | 45.16243 | 8.82631 | 3968 ft | 220 kts | 2° |
| 2026-05-05 21:33 | 45.17775 | 8.82731 | 3970 ft | 221 kts | 2° |
| 2026-05-05 21:33 | 45.19309 | 8.82832 | 3970 ft | 221 kts | 2° |
| 2026-05-05 21:33 | 45.20845 | 8.82939 | 3968 ft | 221 kts | 3° |
| 2026-05-05 21:33 | 45.22384 | 8.83068 | 3964 ft | 221 kts | 3° |
| 2026-05-05 21:34 | 45.23919 | 8.83202 | 3967 ft | 221 kts | 4° |
| 2026-05-05 21:34 | 45.25430 | 8.83511 | 3990 ft | 219 kts | 9° |
| 2026-05-05 21:34 | 45.26952 | 8.83646 | 3987 ft | 219 kts | 357° |
| 2026-05-05 21:34 | 45.28464 | 8.83459 | 3992 ft | 217 kts | 353° |
| 2026-05-05 21:35 | 45.29926 | 8.83179 | 3966 ft | 205 kts | 353° |
| 2026-05-05 21:35 | 45.31290 | 8.82948 | 3963 ft | 190 kts | 352° |
| 2026-05-05 21:35 | 45.32580 | 8.82676 | 3984 ft | 186 kts | 349° |
| 2026-05-05 21:35 | 45.33853 | 8.82219 | 3873 ft | 190 kts | 343° |
| 2026-05-05 21:36 | 45.35085 | 8.81540 | 3982 ft | 195 kts | 336° |
| 2026-05-05 21:36 | 45.36364 | 8.80913 | 3990 ft | 193 kts | 345° |
| 2026-05-05 21:36 | 45.37642 | 8.80452 | 3997 ft | 187 kts | 344° |
| 2026-05-05 21:36 | 45.38890 | 8.79993 | 3987 ft | 185 kts | 346° |
| 2026-05-05 21:37 | 45.40148 | 8.79596 | 3997 ft | 186 kts | 348° |
| 2026-05-05 21:37 | 45.41422 | 8.79230 | 3994 ft | 187 kts | 348° |
| 2026-05-05 21:37 | 45.42704 | 8.78874 | 4000 ft | 188 kts | 349° |
| 2026-05-05 21:37 | 45.43992 | 8.78521 | 3998 ft | 189 kts | 349° |
| 2026-05-05 21:38 | 45.45286 | 8.78169 | 3955 ft | 190 kts | 349° |
| 2026-05-05 21:38 | 45.46595 | 8.77813 | 3750 ft | 192 kts | 349° |
| 2026-05-05 21:38 | 45.47899 | 8.77459 | 3502 ft | 189 kts | 349° |
| 2026-05-05 21:38 | 45.49181 | 8.77110 | 3257 ft | 187 kts | 349° |
| 2026-05-05 21:39 | 45.50443 | 8.76766 | 3010 ft | 182 kts | 350° |
| 2026-05-05 21:39 | 45.51662 | 8.76434 | 2780 ft | 179 kts | 350° |
| 2026-05-05 21:39 | 45.52888 | 8.76101 | 2525 ft | 175 kts | 350° |
| 2026-05-05 21:39 | 45.54037 | 8.75788 | 2330 ft | 165 kts | 351° |
| 2026-05-05 21:40 | 45.55159 | 8.75483 | 2089 ft | 162 kts | 351° |
| 2026-05-05 21:40 | 45.56253 | 8.75185 | 1849 ft | 157 kts | 351° |
| 2026-05-05 21:40 | 45.57327 | 8.74893 | 1654 ft | 157 kts | 350° |
| 2026-05-05 21:40 | 45.58393 | 8.74603 | 1431 ft | 155 kts | 350° |
| 2026-05-05 21:41 | 45.59441 | 8.74320 | 1235 ft | 152 kts | 350° |
| 2026-05-05 21:41 | 45.60473 | 8.74051 | 957 ft | 149 kts | 349° |
| 2026-05-05 21:41 | 45.61450 | 8.73780 | 766 ft | 141 kts | 349° |
| 2026-05-05 21:41 | 45.62337 | 8.73539 | 718 ft | 105 kts | 349° |
| 2026-05-05 21:42 | 45.62853 | 8.73394 | 728 ft | 54 kts | 349° |
| 2026-05-05 21:42 | 45.63156 | 8.73231 | 735 ft | 39 kts | 322° |
| 2026-05-05 21:42 | 45.63287 | 8.73012 | 738 ft | 20 kts | 303° |
| 2026-05-05 21:42 | 45.63298 | 8.72987 | 738 ft | 0 kts | 303° |
| 2026-05-05 21:43 | 45.63303 | 8.72977 | 738 ft | 4 kts | 303° |
| 2026-05-05 21:43 | 45.63334 | 8.72911 | 739 ft | 11 kts | 304° |
| 2026-05-05 21:44 | 45.63384 | 8.72805 | 741 ft | 13 kts | 303° |
| 2026-05-05 21:44 | 45.63409 | 8.72683 | 741 ft | 14 kts | 275° |
| 2026-05-05 21:44 | 45.63390 | 8.72489 | 741 ft | 22 kts | 259° |
| 2026-05-05 21:44 | 45.63361 | 8.72288 | 741 ft | 19 kts | 253° |
| 2026-05-05 21:45 | 45.63332 | 8.72118 | 741 ft | 15 kts | 259° |
| 2026-05-05 21:45 | 45.63321 | 8.72030 | 741 ft | 7 kts | 259° |
| 2026-05-05 21:45 | 45.63316 | 8.71996 | 740 ft | 0 kts | 259° |
| 2026-05-05 21:45 | 45.63315 | 8.71992 | 739 ft | 3 kts | 249° |
| 2026-05-05 21:46 | 45.63282 | 8.71966 | 740 ft | 9 kts | 185° |
| 2026-05-05 21:46 | 45.63190 | 8.71995 | 738 ft | 19 kts | 169° |
| 2026-05-05 21:46 | 45.63057 | 8.72031 | 736 ft | 9 kts | 169° |
| 2026-05-05 21:46 | 45.62995 | 8.72048 | 733 ft | 9 kts | 169° |
| 2026-05-05 21:47 | 45.62929 | 8.72067 | 732 ft | 11 kts | 169° |
| 2026-05-05 21:47 | 45.62844 | 8.72090 | 730 ft | 14 kts | 169° |
| 2026-05-05 21:47 | 45.62740 | 8.72120 | 729 ft | 15 kts | 169° |
| 2026-05-05 21:47 | 45.62683 | 8.72092 | 728 ft | 9 kts | 243° |
| 2026-05-05 21:48 | 45.62669 | 8.72001 | 728 ft | 10 kts | 259° |
| 2026-05-05 21:48 | 45.62655 | 8.71894 | 728 ft | 12 kts | 259° |
| 2026-05-05 21:48 | 45.62638 | 8.71768 | 729 ft | 14 kts | 259° |
| 2026-05-05 21:48 | 45.62619 | 8.71624 | 728 ft | 15 kts | 259° |
| 2026-05-05 21:49 | 45.62599 | 8.71520 | 728 ft | 7 kts | 219° |
| 2026-05-05 21:49 | 45.62568 | 8.71519 | 727 ft | 6 kts | 172° |
| 2026-05-05 21:49 | 45.62531 | 8.71529 | 726 ft | 3 kts | 169° |
| 2026-05-05 21:49 | 45.62530 | 8.71529 | 726 ft | 0 kts | 169° |